Time;durP1;ratioP1;P1;durP2;ratioP2;P2;SDS_P1;SDS_P2;PMS_P1;PMS_P2;Temp;Humidity;BMP_temperature;BMP_pressure;BME280_temperature;BME280_humidity;BME280_pressure;Samples;Min_cycle;Max_cycle;Signal;HPM_P1;HPM_P2
2021/07/15 00:00:57;;;;;;;3.30;2.40;;;15.60;93.70;;;;;;5090220;28;20032;-69
2021/07/15 00:03:26;;;;;;;2.67;2.47;;;15.60;93.80;;;;;;5090529;28;20112;-68
2021/07/15 00:05:54;;;;;;;2.35;2.17;;;15.60;93.90;;;;;;5089422;28;20031;-66
2021/07/15 00:08:22;;;;;;;3.03;2.17;;;15.60;93.80;;;;;;5089698;28;20020;-68
2021/07/15 00:10:58;;;;;;;2.25;2.00;;;15.60;93.90;;;;;;5072312;28;20046;-68
2021/07/15 00:13:25;;;;;;;1.88;1.77;;;15.60;93.90;;;;;;5090504;28;20511;-69
2021/07/15 00:15:54;;;;;;;3.83;1.90;;;15.60;93.90;;;;;;5088467;28;20032;-68
2021/07/15 00:18:27;;;;;;;2.75;1.83;;;15.60;93.90;;;;;;5067827;28;20030;-68
2021/07/15 00:20:53;;;;;;;3.15;1.90;;;15.60;93.80;;;;;;5090426;28;20039;-68
2021/07/15 00:23:20;;;;;;;1.70;1.60;;;15.60;93.80;;;;;;5090080;28;20028;-68
2021/07/15 00:25:47;;;;;;;3.05;1.80;;;15.60;93.90;;;;;;5088331;28;20020;-68
2021/07/15 00:28:14;;;;;;;1.60;1.50;;;15.60;93.90;;;;;;5071846;28;20103;-68
2021/07/15 00:30:41;;;;;;;1.90;1.70;;;15.60;93.90;;;;;;5073610;28;20013;-68
2021/07/15 00:33:07;;;;;;;6.07;1.58;;;15.60;93.80;;;;;;5076081;28;20020;-68
2021/07/15 00:35:34;;;;;;;1.75;1.65;;;15.50;93.70;;;;;;5092186;28;20024;-66
2021/07/15 00:38:00;;;;;;;4.63;1.77;;;15.50;93.70;;;;;;5093948;28;20460;-68
2021/07/15 00:40:26;;;;;;;2.65;1.40;;;15.50;93.80;;;;;;5075959;28;20089;-69
2021/07/15 00:42:51;;;;;;;2.10;1.30;;;15.50;93.80;;;;;;5076199;28;20020;-68
2021/07/15 00:45:18;;;;;;;2.30;1.50;;;15.50;93.70;;;;;;5092221;28;20031;-66
2021/07/15 00:47:46;;;;;;;5.82;1.77;;;15.50;93.80;;;;;;5094111;28;20031;-68
2021/07/15 00:50:13;;;;;;;4.93;1.55;;;15.50;93.80;;;;;;5093944;28;20028;-68
2021/07/15 00:52:39;;;;;;;1.50;1.35;;;15.50;93.70;;;;;;5094325;28;20027;-69
2021/07/15 00:55:08;;;;;;;3.40;1.25;;;15.50;93.70;;;;;;5074476;28;20047;-69
2021/07/15 00:57:34;;;;;;;8.43;1.42;;;15.40;93.70;;;;;;5092514;28;20024;-65
2021/07/15 01:00:00;;;;;;;2.25;1.70;;;15.30;93.60;;;;;;5093821;28;20443;-67
2021/07/15 01:02:26;;;;;;;2.72;1.90;;;15.30;93.60;;;;;;5093692;28;20518;-67
2021/07/15 01:04:51;;;;;;;6.40;1.92;;;15.20;93.70;;;;;;5091746;28;20028;-69
2021/07/15 01:07:17;;;;;;;3.83;1.83;;;15.20;93.90;;;;;;5093722;28;20452;-68
2021/07/15 01:09:43;;;;;;;1.80;1.70;;;15.20;93.60;;;;;;5093954;28;20089;-69
2021/07/15 01:12:34;;;;;;;3.38;1.90;;;15.20;93.60;;;;;;5093655;28;20098;-69
2021/07/15 01:15:30;;;;;;;2.42;1.65;;;15.20;93.60;;;;;;5091933;28;20020;-65
2021/07/15 01:18:22;;;;;;;5.47;2.22;;;15.10;93.60;;;;;;5088051;28;20036;-69
2021/07/15 01:21:19;;;;;;;6.20;1.70;;;15.10;93.60;;;;;;5093448;28;20024;-67
2021/07/15 01:24:38;;;;;;;3.28;1.85;;;15.00;93.60;;;;;;5093709;28;20024;-68
2021/07/15 01:27:33;;;;;;;3.80;1.73;;;14.90;93.60;;;;;;5008747;28;20026;-68
2021/07/15 01:30:04;;;;;;;2.22;2.03;;;14.90;93.70;;;;;;5092107;28;20465;-68
2021/07/15 01:32:35;;;;;;;2.25;1.83;;;15.00;93.70;;;;;;5092897;28;20020;-69
2021/07/15 01:35:05;;;;;;;3.65;1.92;;;14.90;93.70;;;;;;5092389;28;20042;-67
2021/07/15 01:37:32;;;;;;;1.98;1.88;;;15.00;93.80;;;;;;5092215;28;20111;-68
2021/07/15 01:39:59;;;;;;;2.00;1.90;;;15.00;93.80;;;;;;5093137;28;20479;-68
2021/07/15 01:42:27;;;;;;;2.88;1.90;;;15.00;93.80;;;;;;5091532;28;20028;-66
2021/07/15 01:44:54;;;;;;;3.20;1.88;;;15.10;93.80;;;;;;5092231;28;20023;-69
2021/07/15 01:47:21;;;;;;;2.65;1.90;;;15.00;93.90;;;;;;5092050;28;20655;-68
2021/07/15 01:49:48;;;;;;;4.47;1.70;;;15.00;93.90;;;;;;5093077;28;20111;-67
2021/07/15 01:52:15;;;;;;;6.07;1.73;;;15.00;93.90;;;;;;5074683;28;20020;-68
2021/07/15 01:54:42;;;;;;;2.55;1.42;;;15.00;93.90;;;;;;5090994;28;20012;-68
2021/07/15 01:57:09;;;;;;;2.58;1.60;;;15.00;93.90;;;;;;5092752;28;20066;-68
2021/07/15 01:59:36;;;;;;;2.38;1.67;;;14.90;93.90;;;;;;5074623;28;20024;-67
2021/07/15 02:02:04;;;;;;;2.40;1.65;;;14.90;93.90;;;;;;5092581;28;20028;-68
2021/07/15 02:04:31;;;;;;;2.95;1.70;;;14.90;94.00;;;;;;5091854;28;20012;-68
2021/07/15 02:06:58;;;;;;;2.63;1.73;;;14.90;94.10;;;;;;5092239;28;20024;-68
2021/07/15 02:09:24;;;;;;;3.72;1.35;;;14.90;94.10;;;;;;5092410;28;20059;-66
2021/07/15 02:11:51;;;;;;;2.42;1.52;;;14.90;94.10;;;;;;5092621;28;20016;-65
2021/07/15 02:14:20;;;;;;;4.10;1.70;;;14.90;94.10;;;;;;5092492;28;20084;-68
2021/07/15 02:16:50;;;;;;;3.05;1.45;;;14.90;94.20;;;;;;5067921;28;20370;-68
2021/07/15 02:19:18;;;;;;;1.90;1.40;;;14.90;94.20;;;;;;5089109;28;20020;-68
2021/07/15 02:21:45;;;;;;;5.93;1.77;;;15.00;94.20;;;;;;5091551;28;20069;-68
2021/07/15 02:24:13;;;;;;;2.05;1.63;;;15.00;94.20;;;;;;5092258;28;20176;-69
2021/07/15 02:26:39;;;;;;;2.42;1.50;;;15.00;94.30;;;;;;5091237;28;20464;-66
2021/07/15 02:29:05;;;;;;;3.28;1.58;;;15.10;94.30;;;;;;5089350;28;20062;-68
2021/07/15 02:31:43;;;;;;;2.30;1.60;;;15.10;94.30;;;;;;5091692;28;20020;-69
2021/07/15 02:34:15;;;;;;;1.85;1.65;;;15.10;94.30;;;;;;5091979;28;20027;-68
2021/07/15 02:36:42;;;;;;;7.57;1.70;;;15.10;94.30;;;;;;5082657;28;20035;-65
2021/07/15 02:39:09;;;;;;;4.05;1.50;;;15.10;94.20;;;;;;5070221;28;20054;-68
2021/07/15 02:41:36;;;;;;;4.40;1.55;;;15.10;94.20;;;;;;5091702;28;20031;-68
2021/07/15 02:44:01;;;;;;;4.00;1.60;;;15.20;94.30;;;;;;5091998;28;20096;-68
2021/07/15 02:46:28;;;;;;;3.55;1.60;;;15.10;94.30;;;;;;5090661;28;20386;-68
2021/07/15 02:48:54;;;;;;;4.50;1.80;;;15.10;94.30;;;;;;5091574;28;20141;-67
2021/07/15 02:51:20;;;;;;;3.42;1.60;;;15.10;94.30;;;;;;5091692;28;20500;-68
2021/07/15 02:53:46;;;;;;;3.97;1.52;;;15.10;94.20;;;;;;5091516;28;20100;-68
2021/07/15 02:56:45;;;;;;;3.15;1.33;;;15.20;94.30;;;;;;5090390;28;20020;-68
2021/07/15 02:59:27;;;;;;;4.80;1.50;;;15.20;94.40;;;;;;5090987;28;20028;-68
2021/07/15 03:02:09;;;;;;;10.23;2.10;;;15.20;94.40;;;;;;5091146;28;20168;-68
2021/07/15 03:05:05;;;;;;;2.35;1.45;;;15.20;94.40;;;;;;5089700;28;20027;-65
2021/07/15 03:07:45;;;;;;;6.15;1.67;;;15.20;94.40;;;;;;5085733;28;20038;-67
2021/07/15 03:10:14;;;;;;;3.22;1.83;;;15.20;94.40;;;;;;5090705;28;20063;-68
2021/07/15 03:12:41;;;;;;;3.53;1.58;;;15.20;94.30;;;;;;5091329;28;20088;-68
2021/07/15 03:15:08;;;;;;;3.95;2.00;;;15.20;94.30;;;;;;5089419;28;20009;-69
2021/07/15 03:17:37;;;;;;;5.15;1.80;;;15.20;94.30;;;;;;5086452;28;20168;-68
2021/07/15 03:20:08;;;;;;;3.63;2.00;;;15.10;94.30;;;;;;5072980;28;20054;-68
2021/07/15 03:22:39;;;;;;;4.95;2.10;;;15.10;94.40;;;;;;5091184;28;20058;-68
2021/07/15 03:25:13;;;;;;;5.55;1.75;;;15.20;94.40;;;;;;5088916;28;20119;-69
2021/07/15 03:27:43;;;;;;;2.55;2.03;;;15.10;94.40;;;;;;5090851;28;20050;-68
2021/07/15 03:30:09;;;;;;;6.80;2.40;;;15.10;94.40;;;;;;5090390;28;20081;-69
2021/07/15 03:32:35;;;;;;;4.22;1.98;;;15.10;94.40;;;;;;5072344;28;20043;-69
2021/07/15 03:35:01;;;;;;;3.25;2.03;;;15.10;94.30;;;;;;5089234;28;20028;-69
2021/07/15 03:37:28;;;;;;;5.43;2.47;;;15.10;94.40;;;;;;5089813;28;20046;-69
2021/07/15 03:39:54;;;;;;;4.80;2.10;;;15.00;94.40;;;;;;5090822;28;20028;-68
2021/07/15 03:42:21;;;;;;;2.30;2.08;;;15.00;94.50;;;;;;5091016;28;20032;-68
2021/07/15 03:44:48;;;;;;;5.70;2.38;;;15.00;94.50;;;;;;5089014;28;20032;-68
2021/07/15 03:47:15;;;;;;;4.85;2.15;;;15.00;94.50;;;;;;5090449;28;20028;-69
2021/07/15 03:49:43;;;;;;;3.08;1.83;;;14.90;94.50;;;;;;5090767;28;20443;-69
2021/07/15 03:52:14;;;;;;;2.47;2.28;;;14.90;94.60;;;;;;5072732;28;20028;-68
2021/07/15 03:54:45;;;;;;;2.80;2.25;;;14.90;94.70;;;;;;5088686;28;20020;-69
2021/07/15 03:57:12;;;;;;;3.00;1.77;;;15.00;94.80;;;;;;5090626;28;20028;-69
2021/07/15 03:59:43;;;;;;;5.15;2.10;;;15.00;94.80;;;;;;5090563;28;20039;-69
2021/07/15 04:02:10;;;;;;;2.40;2.00;;;15.00;94.80;;;;;;5086811;28;20028;-70
2021/07/15 04:04:38;;;;;;;6.63;2.63;;;15.00;94.80;;;;;;5088090;28;20023;-70
2021/07/15 04:07:06;;;;;;;4.85;2.30;;;15.10;94.80;;;;;;5090433;28;20024;-70
2021/07/15 04:09:35;;;;;;;4.53;2.40;;;15.10;94.80;;;;;;5090648;28;20441;-70
2021/07/15 04:12:02;;;;;;;3.45;2.03;;;15.10;94.80;;;;;;5090261;28;20024;-69
2021/07/15 04:14:59;;;;;;;3.47;2.13;;;15.10;94.80;;;;;;5089407;28;20029;-68
2021/07/15 04:17:29;;;;;;;3.13;2.28;;;15.10;94.90;;;;;;5082704;28;20085;-70
2021/07/15 04:19:59;;;;;;;4.60;2.20;;;15.10;94.80;;;;;;5090392;28;20027;-68
2021/07/15 04:22:29;;;;;;;3.05;2.00;;;15.10;94.80;;;;;;5090438;28;20024;-68
2021/07/15 04:24:57;;;;;;;2.67;2.40;;;15.20;94.90;;;;;;5089287;28;20024;-69
2021/07/15 04:27:30;;;;;;;3.28;2.00;;;15.20;94.90;;;;;;5090112;28;20375;-70
2021/07/15 04:30:07;;;;;;;5.00;2.08;;;15.20;94.80;;;;;;5090423;28;20024;-69
2021/07/15 04:32:53;;;;;;;2.08;1.65;;;15.10;94.80;;;;;;5090340;28;20016;-70
2021/07/15 04:35:20;;;;;;;4.32;1.85;;;15.10;94.80;;;;;;5089388;28;20057;-70
2021/07/15 04:37:47;;;;;;;2.78;1.90;;;15.10;94.70;;;;;;5090323;28;20031;-69
2021/07/15 04:40:16;;;;;;;4.57;1.98;;;15.10;94.80;;;;;;5090613;28;20111;-70
2021/07/15 04:42:43;;;;;;;3.75;1.70;;;15.10;94.90;;;;;;5090743;28;20027;-69
2021/07/15 04:45:14;;;;;;;4.63;1.27;;;15.10;94.90;;;;;;5088900;28;20077;-70
2021/07/15 04:47:45;;;;;;;3.05;1.40;;;15.20;95.00;;;;;;5090123;28;20027;-67
2021/07/15 04:50:16;;;;;;;3.75;1.20;;;15.20;95.10;;;;;;5073014;28;20410;-70
2021/07/15 04:52:43;;;;;;;1.20;1.02;;;15.20;95.00;;;;;;5090542;28;20020;-69
2021/07/15 04:55:11;;;;;;;5.28;1.40;;;15.30;95.00;;;;;;5070712;28;20067;-70
2021/07/15 04:57:38;;;;;;;3.75;1.10;;;15.30;95.00;;;;;;5072517;28;20221;-70
2021/07/15 05:00:11;;;;;;;3.03;2.00;;;15.40;94.90;;;;;;5101986;22;20050;-68
2021/07/15 05:02:37;;;;;;;;;;;15.40;94.90;;;;;;5090643;28;20034;-68
2021/07/15 05:05:08;;;;;;;2.15;1.00;;;15.40;94.80;;;;;;5089198;28;19911;-68
2021/07/15 05:07:36;;;;;;;1.30;1.20;;;15.40;94.80;;;;;;5089541;28;20390;-68
2021/07/15 05:10:10;;;;;;;2.80;1.08;;;15.40;94.80;;;;;;5086474;28;20016;-68
2021/07/15 05:12:36;;;;;;;3.38;1.10;;;15.30;94.90;;;;;;5089631;28;20095;-68
2021/07/15 05:15:07;;;;;;;3.30;1.25;;;15.30;94.80;;;;;;5089545;28;20035;-68
2021/07/15 05:17:32;;;;;;;1.30;1.20;;;15.40;94.90;;;;;;5093663;28;20048;-68
2021/07/15 05:19:59;;;;;;;0.98;0.90;;;15.40;95.10;;;;;;5094067;28;20059;-68
2021/07/15 05:22:25;;;;;;;2.15;1.17;;;15.40;94.90;;;;;;5093973;28;20024;-68
2021/07/15 05:24:50;;;;;;;3.10;1.40;;;15.40;94.90;;;;;;5074460;28;20044;-68
2021/07/15 05:27:16;;;;;;;2.97;1.60;;;15.40;94.90;;;;;;5090860;28;20024;-68
2021/07/15 05:29:42;;;;;;;1.52;1.10;;;15.40;94.90;;;;;;5093969;28;20437;-68
2021/07/15 05:32:08;;;;;;;2.25;1.42;;;15.40;94.90;;;;;;5093405;28;20030;-68
2021/07/15 05:34:34;;;;;;;2.33;1.55;;;15.40;94.90;;;;;;5074075;28;20155;-68
2021/07/15 05:37:01;;;;;;;5.13;1.17;;;15.40;94.90;;;;;;5092344;28;20024;-68
2021/07/15 05:39:27;;;;;;;0.90;0.90;;;15.40;95.00;;;;;;5093755;28;20395;-68
2021/07/15 05:41:52;;;;;;;1.65;1.05;;;15.40;95.00;;;;;;5093240;28;20040;-68
2021/07/15 05:44:18;;;;;;;2.22;0.82;;;15.40;95.00;;;;;;5093419;28;20023;-68
2021/07/15 05:46:44;;;;;;;4.15;1.10;;;15.40;95.00;;;;;;5091400;28;20028;-68
2021/07/15 05:49:09;;;;;;;1.50;0.82;;;15.50;95.10;;;;;;5092606;28;20052;-68
2021/07/15 05:51:35;;;;;;;1.58;1.00;;;15.50;95.00;;;;;;5093461;28;20099;-68
2021/07/15 05:54:00;;;;;;;2.10;0.63;;;15.50;95.10;;;;;;5093542;28;20052;-68
2021/07/15 05:56:26;;;;;;;0.77;0.77;;;15.50;94.90;;;;;;5092122;28;20024;-68
2021/07/15 05:58:52;;;;;;;1.95;0.70;;;15.50;94.90;;;;;;5093025;28;20031;-68
2021/07/15 06:01:17;;;;;;;1.75;0.80;;;15.50;95.00;;;;;;5090897;28;20543;-68
2021/07/15 06:03:43;;;;;;;0.88;0.60;;;15.50;95.00;;;;;;5074501;28;20038;-68
2021/07/15 06:06:08;;;;;;;2.55;0.85;;;15.60;95.10;;;;;;5072972;28;20028;-68
2021/07/15 06:08:34;;;;;;;1.13;0.60;;;15.60;95.10;;;;;;5092760;28;20020;-68
2021/07/15 06:10:59;;;;;;;3.50;0.80;;;15.60;95.00;;;;;;5091394;28;20020;-68
2021/07/15 06:13:25;;;;;;;1.30;0.50;;;15.70;95.00;;;;;;5092772;28;20028;-68
2021/07/15 06:15:50;;;;;;;0.60;0.60;;;15.70;95.10;;;;;;5091774;28;20030;-68
2021/07/15 06:18:16;;;;;;;2.35;0.40;;;15.80;95.20;;;;;;5092413;28;20023;-68
2021/07/15 06:20:41;;;;;;;1.65;0.30;;;15.80;95.10;;;;;;5092051;28;20024;-68
2021/07/15 06:23:07;;;;;;;4.15;0.43;;;15.90;95.10;;;;;;5093015;28;20032;-68
2021/07/15 06:25:33;;;;;;;2.03;0.30;;;15.90;95.00;;;;;;5091249;28;20472;-68
2021/07/15 06:27:58;;;;;;;0.28;0.28;;;15.90;95.00;;;;;;5091401;28;20039;-68
2021/07/15 06:30:24;;;;;;;1.20;0.20;;;16.00;95.00;;;;;;5092064;28;20103;-68
2021/07/15 06:32:50;;;;;;;0.30;0.30;;;16.00;94.90;;;;;;5092641;28;20042;-68
2021/07/15 06:35:17;;;;;;;0.40;0.22;;;16.10;94.90;;;;;;5091315;28;20024;-68
2021/07/15 06:37:46;;;;;;;0.40;0.40;;;16.10;94.90;;;;;;5091569;28;20373;-68
2021/07/15 06:40:12;;;;;;;2.38;0.70;;;16.10;94.80;;;;;;5092182;28;20027;-68
2021/07/15 06:42:39;;;;;;;0.50;0.50;;;16.10;94.70;;;;;;5092498;28;20383;-68
2021/07/15 06:45:07;;;;;;;1.27;0.60;;;16.20;94.70;;;;;;5090540;28;20066;-68
2021/07/15 06:47:33;;;;;;;1.33;0.50;;;16.20;94.60;;;;;;5092163;28;20415;-68
2021/07/15 06:49:59;;;;;;;2.72;0.65;;;16.20;94.60;;;;;;5092256;28;20111;-68
2021/07/15 06:52:29;;;;;;;0.47;0.47;;;16.20;94.60;;;;;;5092527;28;20398;-68
2021/07/15 06:54:56;;;;;;;2.72;0.70;;;16.20;94.60;;;;;;5090374;28;20016;-68
2021/07/15 06:57:21;;;;;;;1.50;0.47;;;16.20;94.60;;;;;;5091884;28;20024;-68
2021/07/15 06:59:47;;;;;;;0.60;0.50;;;16.20;94.80;;;;;;5092374;28;20018;-68
2021/07/15 07:02:12;;;;;;;0.70;0.50;;;16.20;94.50;;;;;;5091631;28;20059;-68
2021/07/15 07:04:38;;;;;;;1.17;0.60;;;16.20;94.50;;;;;;5088935;28;20020;-68
2021/07/15 07:07:04;;;;;;;0.52;0.52;;;16.20;94.60;;;;;;5091860;28;20024;-68
2021/07/15 07:09:29;;;;;;;0.52;0.50;;;16.20;94.50;;;;;;5091817;28;20027;-68
2021/07/15 07:11:55;;;;;;;2.10;1.45;;;16.30;94.60;;;;;;5090788;28;20467;-68
2021/07/15 07:14:21;;;;;;;0.57;0.57;;;16.30;94.50;;;;;;5091979;28;20027;-68
2021/07/15 07:16:46;;;;;;;0.38;0.30;;;16.30;94.50;;;;;;5090473;28;20509;-68
2021/07/15 07:19:12;;;;;;;0.35;0.35;;;16.30;94.50;;;;;;5086531;28;20035;-68
2021/07/15 07:21:37;;;;;;;0.95;0.40;;;16.30;94.40;;;;;;5091668;28;20039;-68
2021/07/15 07:24:03;;;;;;;0.82;0.40;;;16.30;94.40;;;;;;5091501;28;20092;-68
2021/07/15 07:26:29;;;;;;;1.77;0.65;;;16.30;94.40;;;;;;5090402;28;20075;-68
2021/07/15 07:28:55;;;;;;;0.30;0.30;;;16.20;94.30;;;;;;5090937;28;20070;-68
2021/07/15 07:31:20;;;;;;;0.68;0.65;;;16.30;94.30;;;;;;5091016;28;20573;-68
2021/07/15 07:33:46;;;;;;;0.40;0.28;;;16.30;94.40;;;;;;5089274;28;20024;-68
2021/07/15 07:36:11;;;;;;;1.27;0.13;;;16.30;94.40;;;;;;5089818;28;20368;-68
2021/07/15 07:38:37;;;;;;;0.90;0.17;;;16.30;94.40;;;;;;5090921;28;20158;-68
2021/07/15 07:41:03;;;;;;;0.63;0.10;;;16.30;94.30;;;;;;5091356;28;20035;-68
2021/07/15 07:43:29;;;;;;;0.20;0.20;;;16.40;94.40;;;;;;5091190;28;20032;-68
2021/07/15 07:45:54;;;;;;;0.43;0.43;;;16.40;94.30;;;;;;5090227;28;20032;-68
2021/07/15 07:48:21;;;;;;;0.20;0.20;;;16.40;94.30;;;;;;5091326;28;20043;-68
2021/07/15 07:50:47;;;;;;;0.20;0.20;;;16.40;94.20;;;;;;5090887;28;20067;-68
2021/07/15 07:53:12;;;;;;;0.10;0.10;;;16.40;94.20;;;;;;5091181;28;20036;-68
2021/07/15 07:55:39;;;;;;;1.08;0.10;;;16.50;94.20;;;;;;5088965;28;20021;-68
2021/07/15 07:58:05;;;;;;;0.35;0.20;;;16.50;94.20;;;;;;5091151;28;20031;-68
2021/07/15 08:00:31;;;;;;;0.20;0.20;;;16.50;94.20;;;;;;5072588;28;21448;-68
2021/07/15 08:02:56;;;;;;;0.35;0.32;;;16.50;94.10;;;;;;5090980;28;20028;-68
2021/07/15 08:05:24;;;;;;;2.58;0.60;;;16.50;94.00;;;;;;5089640;28;20034;-68
2021/07/15 08:07:51;;;;;;;0.88;0.47;;;16.50;94.10;;;;;;5090084;28;20024;-69
2021/07/15 08:10:17;;;;;;;1.00;0.50;;;16.50;94.10;;;;;;5090750;28;20031;-67
2021/07/15 08:12:43;;;;;;;1.40;0.63;;;16.50;94.10;;;;;;5090956;28;20032;-67
2021/07/15 08:15:10;;;;;;;0.70;0.70;;;16.60;94.00;;;;;;5089963;28;20092;-67
2021/07/15 08:17:36;;;;;;;0.88;0.63;;;16.50;93.90;;;;;;5072008;28;20066;-69
2021/07/15 08:20:04;;;;;;;0.93;0.68;;;16.50;93.90;;;;;;5090661;28;20024;-67
2021/07/15 08:22:30;;;;;;;0.50;0.40;;;16.50;93.90;;;;;;5090349;28;20027;-67
2021/07/15 08:24:55;;;;;;;0.60;0.40;;;16.50;93.90;;;;;;5089056;28;20024;-67
2021/07/15 08:27:21;;;;;;;0.95;0.80;;;16.60;93.90;;;;;;5089854;28;20499;-67
2021/07/15 08:29:47;;;;;;;0.50;0.50;;;16.60;94.00;;;;;;5090658;28;20024;-67
2021/07/15 08:32:13;;;;;;;0.60;0.60;;;16.70;94.00;;;;;;5090234;28;20029;-69
2021/07/15 08:34:39;;;;;;;0.63;0.50;;;16.80;94.00;;;;;;5088606;28;20719;-68
2021/07/15 08:37:05;;;;;;;0.40;0.40;;;16.90;94.00;;;;;;5072669;28;20047;-68
2021/07/15 08:39:30;;;;;;;0.88;0.40;;;17.00;93.90;;;;;;5072486;28;20085;-67
2021/07/15 08:41:58;;;;;;;0.95;0.40;;;17.20;93.90;;;;;;5090819;28;20054;-67
2021/07/15 08:44:24;;;;;;;0.30;0.30;;;17.40;93.60;;;;;;5089827;28;20030;-67
2021/07/15 08:46:51;;;;;;;1.65;0.47;;;17.80;93.40;;;;;;5089814;28;20476;-69
2021/07/15 08:49:17;;;;;;;0.50;0.43;;;18.10;93.10;;;;;;5090275;28;20028;-67
2021/07/15 08:51:44;;;;;;;0.20;0.20;;;18.50;92.70;;;;;;5093117;28;20028;-67
2021/07/15 08:54:13;;;;;;;0.68;0.30;;;19.20;92.30;;;;;;5094235;28;20019;-67
2021/07/15 08:56:42;;;;;;;0.20;0.20;;;19.90;91.60;;;;;;5093561;28;20527;-67
2021/07/15 08:59:10;;;;;;;1.17;0.30;;;20.10;91.20;;;;;;5092605;28;20020;-67
2021/07/15 09:01:36;;;;;;;1.00;0.28;;;20.70;90.70;;;;;;5093194;28;20039;-67
2021/07/15 09:04:03;;;;;;;0.25;0.25;;;21.80;88.80;;;;;;5094102;28;20028;-67
2021/07/15 09:06:29;;;;;;;0.28;0.25;;;22.90;85.70;;;;;;5074796;28;20076;-67
2021/07/15 09:08:55;;;;;;;0.57;0.30;;;23.80;83.70;;;;;;5094348;28;20032;-67
2021/07/15 09:11:21;;;;;;;0.85;0.30;;;23.50;83.70;;;;;;5093928;28;20468;-67
2021/07/15 09:13:48;;;;;;;0.50;0.30;;;22.80;84.10;;;;;;5094477;28;20024;-67
2021/07/15 09:16:15;;;;;;;0.30;0.30;;;22.40;85.20;;;;;;5073640;28;20031;-67
2021/07/15 09:19:03;;;;;;;0.57;0.38;;;22.00;86.10;;;;;;5089529;28;20028;-67
2021/07/15 09:21:34;;;;;;;0.30;0.30;;;22.10;84.70;;;;;;5093832;28;20023;-67
2021/07/15 09:24:01;;;;;;;0.43;0.30;;;22.60;83.70;;;;;;5094052;28;20031;-69
2021/07/15 09:26:31;;;;;;;0.82;0.30;;;23.60;80.60;;;;;;5091354;28;20476;-67
2021/07/15 09:29:13;;;;;;;0.85;0.50;;;24.60;77.40;;;;;;5093385;28;20034;-67
2021/07/15 09:31:57;;;;;;;3.90;0.57;;;25.10;75.40;;;;;;5092827;28;20016;-67
2021/07/15 09:34:25;;;;;;;0.40;0.35;;;25.80;75.10;;;;;;5093922;28;20392;-67
2021/07/15 09:36:52;;;;;;;0.63;0.32;;;26.80;72.30;;;;;;5074609;28;20499;-67
2021/07/15 09:39:24;;;;;;;0.28;0.28;;;26.80;71.40;;;;;;5092761;28;20024;-67
2021/07/15 09:42:05;;;;;;;0.30;0.30;;;26.10;70.90;;;;;;5075472;28;20020;-67
2021/07/15 09:44:43;;;;;;;0.30;0.30;;;25.60;72.40;;;;;;5092387;28;20034;-67
2021/07/15 09:47:35;;;;;;;0.30;0.30;;;25.20;73.00;;;;;;5093664;28;20055;-67
2021/07/15 09:50:23;;;;;;;1.65;0.30;;;24.40;73.30;;;;;;5093609;28;20356;-67
2021/07/15 09:52:48;;;;;;;0.20;0.20;;;23.70;74.20;;;;;;5097079;28;20028;-67
2021/07/15 09:55:19;;;;;;;0.40;0.40;;;23.10;75.30;;;;;;5091900;28;20434;-68
2021/07/15 09:57:45;;;;;;;0.20;0.20;;;22.70;75.90;;;;;;5093602;28;20020;-67
2021/07/15 10:00:12;;;;;;;0.20;0.20;;;22.50;76.50;;;;;;5092831;28;20499;-67
2021/07/15 10:02:38;;;;;;;6.60;4.07;;;22.60;76.90;;;;;;5083826;28;20430;-67
2021/07/15 10:05:04;;;;;;;0.57;0.57;;;22.60;77.00;;;;;;5091037;28;20028;-67
2021/07/15 10:07:30;;;;;;;0.47;0.40;;;23.10;76.20;;;;;;5093073;28;20488;-67
2021/07/15 10:10:16;;;;;;;0.30;0.30;;;23.80;75.60;;;;;;5093043;28;20031;-67
2021/07/15 10:12:42;;;;;;;0.25;0.20;;;24.30;75.10;;;;;;5093229;28;20016;-67
2021/07/15 10:15:09;;;;;;;3.30;0.20;;;24.60;75.10;;;;;;5090915;28;20028;-67
2021/07/15 10:17:43;;;;;;;0.20;0.20;;;25.00;74.50;;;;;;5092332;28;20020;-67
2021/07/15 10:20:13;;;;;;;1.27;0.10;;;25.40;73.10;;;;;;5088894;28;20024;-67
2021/07/15 10:22:40;;;;;;;0.20;0.20;;;25.60;71.70;;;;;;5092948;28;20085;-67
2021/07/15 10:25:07;;;;;;;0.20;0.20;;;25.60;71.60;;;;;;5090886;28;20498;-67
2021/07/15 10:27:34;;;;;;;0.20;0.20;;;25.40;70.80;;;;;;5074012;28;20032;-67
2021/07/15 10:30:01;;;;;;;1.88;0.20;;;25.00;69.90;;;;;;5092712;28;20086;-67
2021/07/15 10:32:29;;;;;;;1.95;1.75;;;24.80;70.90;;;;;;5090913;28;20019;-67
2021/07/15 10:34:55;;;;;;;0.30;0.20;;;24.60;71.50;;;;;;5091041;28;20077;-67
2021/07/15 10:37:21;;;;;;;0.20;0.20;;;24.30;71.20;;;;;;5092269;28;20032;-67
2021/07/15 10:39:48;;;;;;;0.25;0.20;;;24.10;71.40;;;;;;5092655;28;20059;-67
2021/07/15 10:42:14;;;;;;;0.10;0.10;;;23.80;71.40;;;;;;5092338;28;20024;-67
2021/07/15 10:44:40;;;;;;;0.15;0.15;;;23.50;71.80;;;;;;5090895;28;20031;-67
2021/07/15 10:47:07;;;;;;;0.60;0.30;;;23.30;72.00;;;;;;5092270;28;20476;-67
2021/07/15 10:49:33;;;;;;;0.55;0.20;;;23.00;72.60;;;;;;5092375;28;20089;-67
2021/07/15 10:52:01;;;;;;;0.17;0.17;;;22.70;73.20;;;;;;5092504;28;20032;-68
2021/07/15 10:54:28;;;;;;;0.20;0.20;;;22.50;73.10;;;;;;5090844;28;20107;-69
2021/07/15 10:56:54;;;;;;;0.30;0.30;;;22.30;73.20;;;;;;5091368;28;20046;-67
2021/07/15 10:59:27;;;;;;;0.10;0.10;;;22.10;73.90;;;;;;5092047;28;20027;-67
2021/07/15 11:01:59;;;;;;;0.20;0.20;;;21.90;74.50;;;;;;5108124;22;20067;-67
2021/07/15 11:04:40;;;;;;;2.08;0.38;;;21.80;74.70;;;;;;5089429;28;20047;-65
2021/07/15 11:07:16;;;;;;;0.10;0.10;;;21.70;75.00;;;;;;5090231;28;20024;-66
2021/07/15 11:09:42;;;;;;;0.35;0.35;;;21.50;75.30;;;;;;5091047;28;20060;-68
2021/07/15 11:13:05;;;;;;;1.35;0.20;;;21.50;76.00;;;;;;5091190;28;20024;-69
2021/07/15 11:15:54;;;;;;;1.75;0.25;;;21.40;76.10;;;;;;5023860;28;20021;-66
2021/07/15 11:18:54;;;;;;;0.20;0.20;;;21.40;76.50;;;;;;5028395;28;20117;-67
2021/07/15 11:21:32;;;;;;;0.10;0.10;;;21.30;76.60;;;;;;5075976;28;20028;-69
2021/07/15 11:24:04;;;;;;;1.40;0.30;;;21.30;77.00;;;;;;5091183;28;20020;-68
2021/07/15 11:26:32;;;;;;;0.20;0.20;;;21.40;77.00;;;;;;5071443;28;20503;-66
2021/07/15 11:28:59;;;;;;;2.67;0.30;;;21.40;77.20;;;;;;5090906;28;20404;-68
2021/07/15 11:31:46;;;;;;;0.50;0.30;;;21.30;77.70;;;;;;5090292;28;20099;-65
2021/07/15 11:34:40;;;;;;;0.20;0.20;;;21.40;77.80;;;;;;5072577;28;20031;-66
2021/07/15 11:37:25;;;;;;;0.20;0.20;;;21.40;77.50;;;;;;5071662;28;20020;-66
2021/07/15 11:39:51;;;;;;;0.20;0.20;;;21.30;77.30;;;;;;5090943;28;20062;-67
2021/07/15 11:42:21;;;;;;;0.50;0.20;;;21.20;78.10;;;;;;5090313;28;20099;-67
2021/07/15 11:45:22;;;;;;;0.20;0.20;;;21.20;78.20;;;;;;5088927;28;20516;-67
2021/07/15 11:47:54;;;;;;;1.10;0.20;;;21.30;78.40;;;;;;5026863;28;20065;-67
2021/07/15 11:50:31;;;;;;;0.10;0.10;;;21.30;78.60;;;;;;5080535;28;20063;-67
2021/07/15 11:53:19;;;;;;;0.30;0.20;;;21.40;78.70;;;;;;5090292;28;20020;-66
2021/07/15 11:55:51;;;;;;;0.55;0.30;;;21.50;79.00;;;;;;5069698;28;20460;-67
2021/07/15 11:58:38;;;;;;;0.22;0.22;;;21.50;79.20;;;;;;5071982;28;20028;-67
2021/07/15 12:01:23;;;;;;;1.23;0.15;;;21.60;79.50;;;;;;5050615;28;1070973;-67
2021/07/15 12:04:10;;;;;;;0.98;0.20;;;21.60;79.10;;;;;;5084157;28;20476;-67
2021/07/15 12:06:38;;;;;;;0.20;0.20;;;21.60;79.40;;;;;;5090197;28;20089;-67
2021/07/15 12:09:11;;;;;;;1.40;0.20;;;21.60;79.40;;;;;;5072548;28;20120;-67
2021/07/15 12:11:39;;;;;;;0.10;0.10;;;21.70;79.40;;;;;;5089853;28;20707;-67
2021/07/15 12:14:06;;;;;;;0.20;0.20;;;21.60;79.30;;;;;;5090789;28;20028;-67
2021/07/15 12:16:37;;;;;;;0.15;0.10;;;21.70;79.30;;;;;;5089966;28;20032;-67
2021/07/15 12:19:05;;;;;;;0.20;0.20;;;21.70;78.60;;;;;;5072780;28;20081;-66
2021/07/15 12:21:31;;;;;;;2.75;1.00;;;21.60;78.80;;;;;;5090849;28;20020;-66
2021/07/15 12:24:09;;;;;;;0.57;0.47;;;21.60;79.20;;;;;;5090978;28;20020;-67
2021/07/15 12:26:35;;;;;;;1.58;0.68;;;21.60;79.20;;;;;;5088165;28;20063;-67
2021/07/15 12:29:02;;;;;;;0.10;0.10;;;21.60;79.20;;;;;;5072683;28;20052;-67
2021/07/15 12:31:30;;;;;;;0.32;0.28;;;21.60;79.30;;;;;;5090145;28;20028;-66
2021/07/15 12:34:02;;;;;;;0.20;0.20;;;21.60;79.00;;;;;;5090779;28;20023;-67
2021/07/15 12:36:28;;;;;;;;;;;21.50;78.60;;;;;;5089831;28;20329;-67
2021/07/15 12:39:00;;;;;;;0.15;0.15;;;21.50;79.20;;;;;;5089893;28;19911;-66
2021/07/15 12:41:28;;;;;;;0.20;0.20;;;21.40;79.60;;;;;;5090572;28;20028;-67
2021/07/15 12:43:56;;;;;;;0.20;0.20;;;21.40;79.50;;;;;;5090926;28;20085;-68
2021/07/15 12:46:37;;;;;;;2.65;0.30;;;21.40;79.20;;;;;;5070713;28;20028;-67
2021/07/15 12:49:06;;;;;;;0.63;0.20;;;21.50;79.50;;;;;;5090495;28;20028;-68
2021/07/15 12:51:40;;;;;;;0.10;0.10;;;21.50;79.40;;;;;;5090823;28;20020;-67
2021/07/15 12:54:09;;;;;;;0.60;0.20;;;21.60;79.40;;;;;;5090676;28;20027;-66
2021/07/15 12:56:37;;;;;;;0.20;0.20;;;21.70;79.00;;;;;;5070820;28;20035;-67
2021/07/15 12:59:04;;;;;;;0.40;0.20;;;21.70;79.40;;;;;;5090278;28;20089;-66
2021/07/15 13:01:30;;;;;;;1.58;0.25;;;21.80;78.90;;;;;;5069870;28;20031;-66